Terminal Aerodrome Forecast
Issued by NWS Sterling, VA

Current Version | Previous Version | Graphics & Text | Print | Product List | Glossary On
Versions: 1 2 3 4 5 6 7 8 9 10 11 12 13 14
000
FTUS41 KLWX 160531
TAFMRB
TAF
KMRB 160531Z 1606/1706 00000KT P6SM OVC060
     FM161200 VRB03KT 6SM -SN OVC045
     FM170000 33004KT 1 1/2SM -SN OVC025
     FM170300 32005KT 4SM -SN OVC015
     FM170500 32006KT P6SM OVC015=

USA.gov is the U.S. government's official web portal to all federal, state and local government web resources and services.